createdAt,value
2022-10-31T00:00:34.920Z,18.79
2022-10-31T00:03:05.045Z,18.71
2022-10-31T00:05:34.195Z,18.59
2022-10-31T00:08:02.188Z,18.72
2022-10-31T00:10:32.558Z,18.52
2022-10-31T00:13:02.960Z,19.72
2022-10-31T00:15:33.954Z,18.57
2022-10-31T00:18:01.588Z,18.50
2022-10-31T00:20:30.657Z,18.66
2022-10-31T00:23:03.541Z,18.99
2022-10-31T00:25:35.083Z,20.67
2022-10-31T00:28:02.807Z,19.85
2022-10-31T00:30:30.644Z,21.47
2022-10-31T00:32:59.404Z,22.62
2022-10-31T00:35:29.138Z,21.96
2022-10-31T00:38:00.713Z,23.83
2022-10-31T00:40:28.819Z,20.72
2022-10-31T00:42:57.717Z,21.15
2022-10-31T00:45:29.102Z,20.82
2022-10-31T00:47:58.290Z,19.68
2022-10-31T00:50:29.456Z,19.86
2022-10-31T00:53:00.338Z,20.03
2022-10-31T00:55:27.673Z,20.83
2022-10-31T00:57:59.200Z,21.45
2022-10-31T01:00:27.632Z,22.18
2022-10-31T01:02:57.053Z,21.09
2022-10-31T01:05:27.096Z,20.63
2022-10-31T01:07:57.535Z,21.42
2022-10-31T01:10:28.234Z,21.79
2022-10-31T01:12:55.553Z,21.58
2022-10-31T01:15:24.519Z,21.20
2022-10-31T01:17:52.234Z,20.91
2022-10-31T01:20:20.009Z,22.58
2022-10-31T01:22:47.324Z,20.94
2022-10-31T01:25:14.856Z,22.88
2022-10-31T01:27:46.941Z,23.30
2022-10-31T01:30:14.305Z,21.15
2022-10-31T01:32:44.808Z,22.26
2022-10-31T01:35:12.929Z,22.78
2022-10-31T01:37:43.339Z,22.31
2022-10-31T01:40:13.760Z,22.76
2022-10-31T01:42:44.374Z,21.71
2022-10-31T01:45:18.385Z,20.74
2022-10-31T01:47:48.521Z,22.35
2022-10-31T01:50:27.330Z,23.06
2022-10-31T01:52:55.835Z,21.21
2022-10-31T01:55:30.339Z,22.95
2022-10-31T01:58:03.491Z,22.38
2022-10-31T02:00:32.841Z,21.50
2022-10-31T02:03:01.204Z,22.10
2022-10-31T02:05:30.663Z,20.66
2022-10-31T02:08:03.591Z,21.58
2022-10-31T02:10:32.672Z,21.22
2022-10-31T02:13:03.432Z,22.12
2022-10-31T02:15:34.020Z,20.23
2022-10-31T02:18:02.382Z,21.64
2022-10-31T02:20:35.953Z,20.25
2022-10-31T02:23:45.234Z,19.94
2022-10-31T02:26:38.593Z,21.12
2022-10-31T02:29:20.484Z,20.56
2022-10-31T02:32:00.942Z,20.84
2022-10-31T02:34:38.125Z,20.39
2022-10-31T02:37:14.280Z,20.00
2022-10-31T02:39:49.323Z,19.63
2022-10-31T02:42:31.066Z,21.07
2022-10-31T02:45:05.821Z,19.99
2022-10-31T02:47:38.639Z,21.18
2022-10-31T02:50:12.005Z,21.51
2022-10-31T02:52:40.279Z,21.02
2022-10-31T02:55:13.150Z,21.17
2022-10-31T02:57:43.403Z,20.99
2022-10-31T03:00:11.708Z,21.46
2022-10-31T03:02:50.747Z,21.40
2022-10-31T03:05:47.982Z,20.61
2022-10-31T03:08:24.496Z,21.43
2022-10-31T03:10:58.287Z,22.89
2022-10-31T03:13:35.489Z,21.24
2022-10-31T03:16:10.287Z,21.06
2022-10-31T03:18:41.767Z,21.65
2022-10-31T03:21:15.011Z,19.77
2022-10-31T03:23:45.942Z,20.38
2022-10-31T03:26:22.170Z,20.49
2022-10-31T03:28:54.425Z,21.32
2022-10-31T03:31:27.604Z,19.87
2022-10-31T03:34:00.903Z,20.08
2022-10-31T03:36:34.042Z,20.24
2022-10-31T03:39:06.049Z,19.52
2022-10-31T03:41:44.780Z,19.72
2022-10-31T03:44:19.280Z,19.89
2022-10-31T03:46:52.099Z,20.13
2022-10-31T03:49:21.070Z,20.12
2022-10-31T03:51:54.607Z,19.88
2022-10-31T03:54:27.628Z,19.74
2022-10-31T03:57:01.286Z,19.65
2022-10-31T03:59:34.021Z,19.51
2022-10-31T04:02:07.424Z,20.11
2022-10-31T04:04:38.140Z,19.70
2022-10-31T04:07:09.505Z,19.41
2022-10-31T04:09:40.721Z,20.20
2022-10-31T04:12:11.353Z,19.74
2022-10-31T04:15:03.799Z,20.24
2022-10-31T04:17:34.661Z,19.99
2022-10-31T04:20:03.975Z,20.23
2022-10-31T04:22:31.405Z,19.84
2022-10-31T04:24:58.786Z,20.08
2022-10-31T04:27:27.446Z,19.77
2022-10-31T04:29:58.540Z,20.09
2022-10-31T04:32:28.693Z,20.13
2022-10-31T04:34:56.764Z,20.76
2022-10-31T04:37:29.293Z,20.34
2022-10-31T04:39:56.651Z,19.83
2022-10-31T04:42:48.635Z,19.89
2022-10-31T04:45:20.063Z,19.93
2022-10-31T04:47:51.773Z,20.37
2022-10-31T04:50:19.777Z,20.08
2022-10-31T04:52:52.403Z,19.99
2022-10-31T04:55:26.069Z,19.90
2022-10-31T04:58:14.379Z,19.82
2022-10-31T05:00:42.261Z,20.48
2022-10-31T05:03:09.742Z,20.48
2022-10-31T05:05:37.181Z,20.17
2022-10-31T05:08:06.605Z,20.51
2022-10-31T05:10:33.968Z,21.71
2022-10-31T05:13:05.308Z,20.56
2022-10-31T05:15:51.808Z,20.68
2022-10-31T05:18:39.360Z,20.38
2022-10-31T05:21:44.989Z,20.68
2022-10-31T05:24:14.064Z,20.70
2022-10-31T05:26:46.776Z,20.71
2022-10-31T05:29:14.776Z,20.43
2022-10-31T05:31:42.164Z,20.55
2022-10-31T05:34:19.534Z,21.88
2022-10-31T05:37:13.039Z,21.69
2022-10-31T05:39:41.972Z,22.42
2022-10-31T05:42:14.685Z,21.34
2022-10-31T05:44:42.809Z,21.17
2022-10-31T05:47:33.635Z,20.50
2022-10-31T05:50:31.739Z,21.25
2022-10-31T05:53:09.210Z,20.61
2022-10-31T05:55:40.152Z,21.35
2022-10-31T05:58:20.765Z,20.73
2022-10-31T06:01:01.836Z,20.97
2022-10-31T06:03:29.581Z,20.81
2022-10-31T06:05:58.158Z,21.49
2022-10-31T06:08:30.909Z,20.35
2022-10-31T06:11:03.292Z,20.96
2022-10-31T06:13:49.336Z,21.59
2022-10-31T06:16:22.197Z,21.71
2022-10-31T06:18:50.776Z,22.09
2022-10-31T06:21:19.335Z,22.13
2022-10-31T06:23:49.409Z,21.96
2022-10-31T06:26:47.226Z,21.58
2022-10-31T06:29:16.389Z,21.22
2022-10-31T06:32:05.551Z,22.02
2022-10-31T06:34:38.219Z,22.21
2022-10-31T06:37:07.846Z,23.19
2022-10-31T06:39:35.930Z,22.22
2022-10-31T06:42:07.951Z,22.07
2022-10-31T06:44:36.117Z,22.22
2022-10-31T06:47:22.265Z,21.69
2022-10-31T06:50:22.348Z,22.87
2022-10-31T06:52:53.909Z,22.24
2022-10-31T06:55:23.324Z,22.03
2022-10-31T06:57:52.356Z,21.68
2022-10-31T07:00:23.758Z,22.13
2022-10-31T07:02:57.965Z,22.00
2022-10-31T07:05:26.424Z,21.59
2022-10-31T07:07:54.778Z,22.43
2022-10-31T07:10:22.956Z,22.03
2022-10-31T07:13:02.518Z,21.55
2022-10-31T07:15:35.999Z,21.87
2022-10-31T07:18:04.280Z,21.70
2022-10-31T07:20:32.543Z,21.26
2022-10-31T07:23:00.552Z,21.33
2022-10-31T07:25:29.013Z,22.00
2022-10-31T07:28:04.290Z,21.34
2022-10-31T07:30:31.859Z,22.64
2022-10-31T07:32:59.503Z,21.92
2022-10-31T07:35:44.496Z,22.02
2022-10-31T07:38:15.132Z,21.94
2022-10-31T07:40:43.590Z,22.83
2022-10-31T07:43:14.452Z,23.86
2022-10-31T07:46:11.396Z,23.03
2022-10-31T07:48:57.571Z,23.35
2022-10-31T07:51:46.446Z,22.63
2022-10-31T07:54:32.780Z,23.25
2022-10-31T07:57:00.121Z,23.14
2022-10-31T07:59:28.900Z,21.69
2022-10-31T08:01:56.403Z,23.04
2022-10-31T08:04:32.753Z,22.83
2022-10-31T08:07:19.241Z,22.23
2022-10-31T08:09:53.524Z,22.13
2022-10-31T08:12:24.844Z,22.10
2022-10-31T08:14:55.267Z,22.28
2022-10-31T08:17:22.663Z,22.38
2022-10-31T08:20:05.487Z,21.58
2022-10-31T08:22:41.190Z,22.46
2022-10-31T08:25:11.611Z,21.88
2022-10-31T08:27:39.858Z,22.13
2022-10-31T08:30:12.373Z,23.38
2022-10-31T08:32:46.398Z,23.01
2022-10-31T08:35:33.293Z,22.57
2022-10-31T08:38:38.928Z,21.50
2022-10-31T08:41:09.520Z,21.46
2022-10-31T08:43:37.787Z,21.98
2022-10-31T08:46:07.114Z,22.63
2022-10-31T08:48:34.589Z,21.56
2022-10-31T08:51:04.098Z,21.74
2022-10-31T08:53:32.660Z,21.70
2022-10-31T08:56:21.965Z,21.41
2022-10-31T08:58:49.388Z,21.92
2022-10-31T09:01:20.555Z,22.04
2022-10-31T09:03:47.706Z,22.55
2022-10-31T09:06:15.540Z,23.00
2022-10-31T09:08:42.960Z,22.66
2022-10-31T09:11:10.311Z,22.07
2022-10-31T09:14:10.199Z,22.06
2022-10-31T09:16:59.318Z,22.00
2022-10-31T09:19:42.052Z,21.96
2022-10-31T09:22:09.455Z,21.59
2022-10-31T09:24:36.830Z,22.13
2022-10-31T09:27:04.616Z,22.98
2022-10-31T09:29:32.795Z,22.48
2022-10-31T09:32:03.288Z,23.40
2022-10-31T09:34:32.568Z,22.42
2022-10-31T09:37:26.602Z,22.46
2022-10-31T09:39:56.751Z,22.20
2022-10-31T09:42:53.401Z,22.10
2022-10-31T09:45:35.953Z,22.41
2022-10-31T09:48:31.423Z,22.47
2022-10-31T09:51:29.731Z,23.09
2022-10-31T09:54:22.875Z,21.74
2022-10-31T09:56:51.676Z,21.50
2022-10-31T09:59:25.384Z,23.00
2022-10-31T10:01:57.457Z,22.25
2022-10-31T10:04:39.262Z,22.35
2022-10-31T10:07:20.678Z,22.16
2022-10-31T10:10:16.283Z,21.77
2022-10-31T10:13:28.394Z,22.58
2022-10-31T10:16:08.570Z,22.22
2022-10-31T10:18:43.549Z,22.17
2022-10-31T10:21:24.514Z,21.75
2022-10-31T10:24:18.955Z,22.39
2022-10-31T10:26:56.156Z,22.34
2022-10-31T10:29:34.357Z,22.17
2022-10-31T10:32:11.202Z,22.52
2022-10-31T10:34:45.856Z,22.06
2022-10-31T10:37:28.255Z,21.68
2022-10-31T10:40:03.886Z,22.03
2022-10-31T10:42:31.255Z,21.92
2022-10-31T10:44:59.341Z,21.51
2022-10-31T10:47:31.541Z,22.00
2022-10-31T10:50:08.836Z,21.96
2022-10-31T10:52:50.197Z,21.86
2022-10-31T10:55:28.360Z,21.95
2022-10-31T10:57:59.992Z,22.94
2022-10-31T11:00:33.653Z,22.54
2022-10-31T11:03:08.122Z,23.07
2022-10-31T11:05:42.768Z,22.43
2022-10-31T11:08:11.935Z,21.89
2022-10-31T11:10:39.371Z,22.12
2022-10-31T11:13:22.583Z,21.97
2022-10-31T11:16:01.550Z,22.00
2022-10-31T11:18:31.718Z,22.31
2022-10-31T11:21:01.004Z,22.39
2022-10-31T11:23:30.451Z,22.05
2022-10-31T11:25:58.954Z,22.44
2022-10-31T11:28:26.925Z,22.25
2022-10-31T11:30:57.150Z,21.97
2022-10-31T11:33:32.213Z,22.53
2022-10-31T11:36:02.062Z,22.60
2022-10-31T11:38:36.111Z,22.03
2022-10-31T11:41:14.453Z,21.84
2022-10-31T11:43:49.968Z,22.27
2022-10-31T11:46:21.956Z,21.92
2022-10-31T11:48:51.961Z,22.41
2022-10-31T11:51:23.089Z,22.36
2022-10-31T11:53:59.909Z,21.99
2022-10-31T11:56:38.548Z,22.49
2022-10-31T11:59:16.146Z,22.20
2022-10-31T12:01:49.592Z,22.17
2022-10-31T12:04:17.613Z,22.32
2022-10-31T12:06:46.829Z,22.46
2022-10-31T12:09:23.407Z,22.43
2022-10-31T12:12:11.466Z,22.39
2022-10-31T12:14:47.656Z,22.55
2022-10-31T12:17:18.827Z,22.10
2022-10-31T12:19:58.048Z,22.60
2022-10-31T12:22:33.277Z,22.09
2022-10-31T12:25:28.082Z,22.50
2022-10-31T12:28:12.636Z,22.43
2022-10-31T12:30:56.117Z,22.77
2022-10-31T12:33:39.915Z,22.78
2022-10-31T12:36:21.552Z,23.51
2022-10-31T12:39:12.072Z,23.45
2022-10-31T12:41:47.989Z,23.05
2022-10-31T12:44:41.960Z,25.90
2022-10-31T12:47:48.566Z,25.62
2022-10-31T12:50:28.873Z,24.07
2022-10-31T12:53:10.613Z,24.91
2022-10-31T12:55:45.660Z,24.07
2022-10-31T12:58:22.017Z,24.13
2022-10-31T13:00:54.628Z,23.80
2022-10-31T13:03:30.016Z,23.80
2022-10-31T13:06:03.634Z,23.57
2022-10-31T13:08:39.333Z,24.46
2022-10-31T13:11:11.954Z,24.91
2022-10-31T13:13:45.393Z,23.85
2022-10-31T13:16:16.598Z,23.77
2022-10-31T13:18:48.795Z,23.44
2022-10-31T13:21:22.818Z,23.32
2022-10-31T13:23:52.497Z,23.68
2022-10-31T13:26:25.002Z,23.57
2022-10-31T13:29:05.051Z,23.43
2022-10-31T13:31:32.454Z,23.25
2022-10-31T13:34:04.905Z,23.52
2022-10-31T13:36:40.462Z,23.24
2022-10-31T13:39:24.697Z,22.90
2022-10-31T13:41:58.357Z,23.37
2022-10-31T13:44:30.532Z,22.71
2022-10-31T13:46:59.704Z,24.73
2022-10-31T13:49:38.764Z,26.41
2022-10-31T13:52:17.662Z,26.23
2022-10-31T13:54:46.640Z,25.65
2022-10-31T13:57:20.058Z,28.17
2022-10-31T13:59:52.548Z,26.11
2022-10-31T14:02:28.921Z,24.51
2022-10-31T14:05:00.188Z,24.93
2022-10-31T14:07:29.115Z,24.19
2022-10-31T14:09:59.408Z,24.20
2022-10-31T14:12:32.157Z,24.88
2022-10-31T14:15:07.079Z,25.12
2022-10-31T14:17:47.026Z,25.60
2022-10-31T14:20:32.443Z,24.60
2022-10-31T14:25:34.538Z,25.09
2022-10-31T14:28:03.648Z,24.64
2022-10-31T14:30:34.681Z,24.39
2022-10-31T14:33:11.920Z,24.16
2022-10-31T14:36:01.794Z,24.11
2022-10-31T14:38:45.302Z,26.17
2022-10-31T14:41:33.247Z,25.65
2022-10-31T14:44:52.740Z,24.59
2022-10-31T14:47:37.198Z,25.55
2022-10-31T14:50:22.334Z,24.10
2022-10-31T14:52:53.070Z,23.86
2022-10-31T14:55:21.908Z,24.91
2022-10-31T14:57:53.459Z,24.42
2022-10-31T15:00:23.826Z,24.12
2022-10-31T15:03:05.978Z,24.19
2022-10-31T15:05:35.823Z,24.17
2022-10-31T15:08:03.285Z,26.45
2022-10-31T15:10:32.945Z,24.64
2022-10-31T15:13:09.585Z,23.90
2022-10-31T15:15:37.954Z,23.67
2022-10-31T15:18:18.689Z,24.33
2022-10-31T15:20:47.087Z,23.89
2022-10-31T15:23:21.858Z,23.87
2022-10-31T15:25:49.371Z,25.59
2022-10-31T15:28:23.711Z,25.66
2022-10-31T15:30:53.808Z,24.99
2022-10-31T15:33:25.013Z,24.37
2022-10-31T15:35:57.119Z,25.48
2022-10-31T15:38:25.503Z,23.97
2022-10-31T15:41:00.639Z,23.93
2022-10-31T15:43:32.718Z,23.87
2022-10-31T15:46:01.532Z,24.26
2022-10-31T15:48:30.752Z,24.79
2022-10-31T15:50:58.999Z,24.64
2022-10-31T15:53:28.642Z,24.03
2022-10-31T15:55:58.322Z,24.16
2022-10-31T15:58:28.449Z,24.38
2022-10-31T16:01:00.579Z,23.87
2022-10-31T16:03:30.687Z,25.54
2022-10-31T16:06:00.049Z,24.09
2022-10-31T16:08:33.722Z,26.00
2022-10-31T16:11:15.195Z,25.47
2022-10-31T16:13:59.109Z,24.72
2022-10-31T16:16:36.155Z,25.24
2022-10-31T16:19:13.629Z,24.64
2022-10-31T16:21:41.195Z,26.17
2022-10-31T16:24:19.051Z,24.76
2022-10-31T16:26:50.491Z,24.40
2022-10-31T16:29:29.135Z,24.87
2022-10-31T16:31:56.597Z,23.81
2022-10-31T16:34:27.059Z,25.39
2022-10-31T16:36:54.588Z,25.04
2022-10-31T16:39:22.026Z,24.80
2022-10-31T16:41:52.171Z,25.01
2022-10-31T16:44:22.770Z,25.25
2022-10-31T16:47:14.970Z,23.78
2022-10-31T16:49:49.052Z,25.21
2022-10-31T16:52:16.780Z,25.27
2022-10-31T16:54:45.721Z,25.64
2022-10-31T16:57:17.979Z,24.14
2022-10-31T16:59:47.454Z,25.70
2022-10-31T17:02:17.189Z,25.14
2022-10-31T17:04:47.579Z,24.15
2022-10-31T17:07:16.967Z,25.83
2022-10-31T17:09:44.289Z,26.17
2022-10-31T17:12:18.684Z,24.89
2022-10-31T17:14:49.213Z,25.94
2022-10-31T17:17:16.540Z,25.40
2022-10-31T17:19:45.287Z,25.97
2022-10-31T17:22:13.273Z,25.68
2022-10-31T17:24:42.682Z,26.18
2022-10-31T17:27:12.871Z,24.74
2022-10-31T17:29:43.973Z,24.71
2022-10-31T17:32:11.312Z,25.48
2022-10-31T17:34:46.890Z,24.60
2022-10-31T17:37:14.259Z,24.56
2022-10-31T17:39:41.637Z,24.99
2022-10-31T17:42:11.818Z,25.05
2022-10-31T17:44:39.300Z,26.12
2022-10-31T17:47:14.043Z,26.70
2022-10-31T17:49:41.389Z,25.77
2022-10-31T17:52:13.249Z,24.54
2022-10-31T17:54:40.611Z,24.78
2022-10-31T17:57:08.517Z,24.19
2022-10-31T17:59:40.179Z,24.56
2022-10-31T18:02:09.194Z,24.27
2022-10-31T18:04:39.608Z,24.62
2022-10-31T18:07:07.992Z,25.13
2022-10-31T18:09:39.722Z,24.20
2022-10-31T18:12:07.384Z,24.11
2022-10-31T18:14:36.027Z,25.89
2022-10-31T18:17:06.302Z,25.15
2022-10-31T18:19:35.072Z,24.00
2022-10-31T18:22:03.262Z,24.95
2022-10-31T18:24:42.000Z,25.90
2022-10-31T18:27:09.408Z,24.88
2022-10-31T18:29:36.832Z,24.33
2022-10-31T18:32:09.362Z,24.48
2022-10-31T18:34:37.305Z,24.35
2022-10-31T18:37:05.471Z,24.76
2022-10-31T18:39:35.972Z,26.11
2022-10-31T18:42:05.226Z,25.77
2022-10-31T18:44:32.670Z,24.34
2022-10-31T18:46:59.998Z,24.74
2022-10-31T18:49:27.441Z,25.24
2022-10-31T18:51:54.763Z,24.75
2022-10-31T18:54:24.955Z,25.77
2022-10-31T18:56:53.987Z,24.71
2022-10-31T18:59:22.784Z,24.86
2022-10-31T19:01:53.563Z,24.84
2022-10-31T19:04:23.976Z,25.41
2022-10-31T19:06:52.306Z,25.74
2022-10-31T19:09:22.830Z,24.83
2022-10-31T19:11:52.901Z,25.09
2022-10-31T19:14:24.393Z,25.16
2022-10-31T19:16:52.573Z,24.52
2022-10-31T19:19:21.095Z,24.45
2022-10-31T19:21:51.271Z,25.52
2022-10-31T19:24:21.154Z,25.54
2022-10-31T19:26:51.597Z,25.01
2022-10-31T19:29:19.439Z,26.07
2022-10-31T19:31:51.289Z,24.26
2022-10-31T19:34:19.372Z,26.36
2022-10-31T19:36:48.715Z,24.78
2022-10-31T19:39:19.474Z,24.27
2022-10-31T19:41:49.087Z,25.60
2022-10-31T19:44:17.758Z,25.70
2022-10-31T19:46:53.909Z,25.87
2022-10-31T19:49:21.797Z,26.15
2022-10-31T19:51:49.139Z,25.40
2022-10-31T19:54:19.147Z,25.29
2022-10-31T19:56:47.137Z,25.67
2022-10-31T19:59:15.901Z,24.76
2022-10-31T20:01:46.699Z,26.65
2022-10-31T20:04:18.062Z,25.08
2022-10-31T20:06:46.109Z,25.85
2022-10-31T20:09:16.509Z,25.72
2022-10-31T20:11:47.331Z,26.05
2022-10-31T20:14:16.558Z,25.86
2022-10-31T20:16:45.531Z,26.40
2022-10-31T20:19:15.690Z,25.43
2022-10-31T20:21:45.218Z,24.92
2022-10-31T20:24:14.979Z,24.83
2022-10-31T20:26:42.766Z,25.11
2022-10-31T20:29:14.639Z,26.39
2022-10-31T20:31:44.033Z,25.63
2022-10-31T20:34:16.108Z,25.18
2022-10-31T20:36:44.212Z,24.92
2022-10-31T20:39:14.394Z,26.14
2022-10-31T20:41:43.109Z,25.21
2022-10-31T20:44:12.878Z,26.24
2022-10-31T20:46:43.577Z,25.69
2022-10-31T20:49:13.160Z,26.18
2022-10-31T20:51:44.431Z,25.22
2022-10-31T20:54:15.049Z,26.17
2022-10-31T20:56:42.490Z,24.99
2022-10-31T20:59:11.670Z,24.46
2022-10-31T21:01:43.913Z,25.08
2022-10-31T21:04:11.601Z,24.58
2022-10-31T21:06:49.051Z,24.41
2022-10-31T21:09:17.710Z,24.39
2022-10-31T21:11:45.009Z,23.96
2022-10-31T21:14:12.835Z,24.66
2022-10-31T21:16:40.233Z,24.65
2022-10-31T21:19:09.245Z,24.34
2022-10-31T21:21:39.588Z,23.94
2022-10-31T21:24:14.068Z,24.05
2022-10-31T21:26:43.394Z,24.37
2022-10-31T21:29:12.756Z,24.39
2022-10-31T21:31:40.647Z,24.34
2022-10-31T21:34:10.307Z,24.13
2022-10-31T21:36:39.236Z,24.03
2022-10-31T21:39:09.534Z,24.37
2022-10-31T21:41:37.722Z,24.03
2022-10-31T21:44:07.577Z,23.96
2022-10-31T21:46:36.298Z,24.10
2022-10-31T21:49:06.197Z,24.50
2022-10-31T21:51:38.097Z,23.86
2022-10-31T21:54:10.545Z,24.02
2022-10-31T21:56:38.427Z,23.71
2022-10-31T21:59:06.608Z,24.16
2022-10-31T22:01:35.865Z,24.54
2022-10-31T22:04:04.979Z,23.96
2022-10-31T22:06:36.502Z,23.70
2022-10-31T22:09:06.091Z,24.04
2022-10-31T22:11:37.739Z,24.73
2022-10-31T22:14:05.135Z,23.96
2022-10-31T22:16:35.238Z,24.83
2022-10-31T22:19:03.894Z,24.00
2022-10-31T22:21:36.110Z,24.09
2022-10-31T22:24:07.449Z,24.15
2022-10-31T22:26:36.998Z,24.66
2022-10-31T22:29:05.297Z,24.54
2022-10-31T22:31:34.284Z,24.96
2022-10-31T22:34:01.744Z,24.29
2022-10-31T22:36:30.546Z,24.71
2022-10-31T22:38:58.400Z,24.56
2022-10-31T22:41:27.844Z,24.19
2022-10-31T22:43:56.999Z,24.82
2022-10-31T22:46:25.780Z,24.42
2022-10-31T22:48:55.339Z,24.40
2022-10-31T22:51:23.825Z,24.61
2022-10-31T22:53:51.598Z,24.44
2022-10-31T22:56:23.127Z,24.49
2022-10-31T22:58:50.527Z,24.19
2022-10-31T23:01:23.267Z,24.02
2022-10-31T23:03:51.224Z,24.51
2022-10-31T23:06:20.640Z,24.56
2022-10-31T23:08:48.882Z,24.64
2022-10-31T23:11:21.360Z,24.22
2022-10-31T23:13:50.096Z,24.48
2022-10-31T23:16:18.868Z,24.49
2022-10-31T23:18:50.559Z,23.97
2022-10-31T23:21:18.232Z,23.96
2022-10-31T23:23:46.848Z,24.47
2022-10-31T23:26:16.952Z,24.40
2022-10-31T23:28:47.153Z,24.33
2022-10-31T23:31:16.197Z,23.95
2022-10-31T23:33:47.796Z,24.78
2022-10-31T23:36:15.853Z,24.85
2022-10-31T23:38:44.591Z,25.53
2022-10-31T23:41:14.360Z,26.13
2022-10-31T23:43:45.022Z,25.96
2022-10-31T23:46:14.670Z,24.77
2022-10-31T23:48:43.710Z,25.64
2022-10-31T23:51:14.779Z,25.79
2022-10-31T23:53:44.594Z,26.47
2022-10-31T23:56:14.827Z,25.40
2022-10-31T23:58:43.913Z,26.48
